createdAt,value
2023-04-02T00:05:50.217Z,100456.69
2023-04-02T00:15:57.633Z,100484.25
2023-04-02T00:25:59.138Z,100502.94
2023-04-02T00:36:01.038Z,100518.31
2023-04-02T00:46:10.696Z,100537.28
2023-04-02T00:56:17.805Z,100556.03
2023-04-02T01:06:20.348Z,100569.03
2023-04-02T01:16:42.344Z,100599.38
2023-04-02T01:26:52.991Z,100612.34
2023-04-02T01:37:22.273Z,100619.19
2023-04-02T01:47:27.386Z,100638.91
2023-04-02T01:57:29.397Z,100667.75
2023-04-02T02:07:30.946Z,100681.00
2023-04-02T02:17:34.630Z,100704.72
2023-04-02T02:27:48.109Z,100722.03
2023-04-02T02:37:59.635Z,100740.72
2023-04-02T02:48:02.711Z,100763.09
2023-04-02T02:58:11.903Z,100776.88
2023-04-02T03:08:53.620Z,100801.44
2023-04-02T03:19:15.705Z,100823.88
2023-04-02T03:29:27.826Z,100835.22
2023-04-02T03:39:41.362Z,100881.41
2023-04-02T03:49:56.414Z,100884.56
2023-04-02T04:00:32.520Z,100903.28
2023-04-02T04:10:35.062Z,100941.59
2023-04-02T04:20:46.081Z,100956.47
2023-04-02T04:31:01.882Z,100974.94
2023-04-02T04:41:16.334Z,100994.13
2023-04-02T04:51:29.181Z,101027.91
2023-04-02T05:01:41.235Z,101058.78
2023-04-02T05:11:47.880Z,101069.50
2023-04-02T05:21:59.879Z,101098.59
2023-04-02T05:32:16.023Z,101121.75
2023-04-02T05:42:24.786Z,101146.38
2023-04-02T05:52:31.567Z,101166.66
2023-04-02T06:02:37.879Z,101188.22
2023-04-02T06:12:45.228Z,101214.28
2023-04-02T06:22:55.351Z,101233.38
2023-04-02T06:32:57.316Z,101251.84
2023-04-02T06:43:03.116Z,101275.31
2023-04-02T06:53:09.682Z,101294.59
2023-04-02T07:03:23.767Z,101328.81
2023-04-02T07:13:25.827Z,101337.13
2023-04-02T07:23:27.305Z,101370.06
2023-04-02T07:33:30.432Z,101399.00
2023-04-02T07:43:32.143Z,101405.63
2023-04-02T07:53:35.769Z,101430.53
2023-04-02T08:03:37.293Z,101442.31
2023-04-02T08:13:39.190Z,101466.09
2023-04-02T08:23:40.542Z,101475.63
2023-04-02T08:33:42.047Z,101501.56
2023-04-02T08:44:09.391Z,101515.69
2023-04-02T08:54:43.539Z,101527.84
2023-04-02T09:04:45.196Z,101546.09
2023-04-02T09:15:04.678Z,101567.00
2023-04-02T09:25:14.050Z,101586.50
2023-04-02T09:35:26.875Z,101615.72
2023-04-02T09:45:28.698Z,101623.63
2023-04-02T09:55:31.095Z,101644.06
2023-04-02T10:05:40.750Z,101662.84
2023-04-02T10:15:53.539Z,101669.38
2023-04-02T10:25:57.952Z,101693.25
2023-04-02T10:36:08.711Z,101715.59
2023-04-02T10:46:28.632Z,101724.31
2023-04-02T10:56:44.058Z,101756.28
2023-04-02T11:07:11.089Z,101775.50
2023-04-02T11:17:16.678Z,101785.06
2023-04-02T11:27:26.469Z,101803.44
2023-04-02T11:37:36.513Z,101813.91
2023-04-02T11:47:37.918Z,101820.50
2023-04-02T11:58:00.264Z,101826.81
2023-04-02T12:08:28.114Z,101847.47
2023-04-02T12:18:29.716Z,101855.53
2023-04-02T12:28:33.698Z,101874.88
2023-04-02T12:39:15.947Z,101889.41
2023-04-02T12:49:38.972Z,101908.03
2023-04-02T12:59:41.786Z,101903.25
2023-04-02T13:09:49.008Z,101905.09
2023-04-02T13:19:50.974Z,101914.69
2023-04-02T13:29:52.341Z,101914.91
2023-04-02T13:39:53.868Z,101926.91
2023-04-02T13:49:55.308Z,101923.09
2023-04-02T13:59:56.654Z,101940.63
2023-04-02T14:10:14.840Z,101936.38
2023-04-02T14:20:54.379Z,101947.94
2023-04-02T14:31:14.296Z,101943.25
2023-04-02T14:41:34.170Z,101958.53
2023-04-02T14:51:44.180Z,101973.97
2023-04-02T15:01:49.818Z,101977.34
2023-04-02T15:11:54.838Z,101985.81
2023-04-02T15:21:59.065Z,101995.91
2023-04-02T15:32:29.682Z,102006.91
2023-04-02T15:42:38.992Z,102020.88
2023-04-02T15:53:13.766Z,102021.72
2023-04-02T16:03:29.834Z,102034.72
2023-04-02T16:13:34.060Z,102045.66
2023-04-02T16:23:38.322Z,102055.31
2023-04-02T16:34:09.150Z,102072.97
2023-04-02T16:44:55.864Z,102091.78
2023-04-02T16:55:03.751Z,102106.25
2023-04-02T17:05:32.522Z,102148.59
2023-04-02T17:15:39.324Z,102152.66
2023-04-02T17:26:09.210Z,102156.63
2023-04-02T17:36:29.895Z,102167.34
2023-04-02T17:46:51.704Z,102180.03
2023-04-02T17:56:58.762Z,102190.81
2023-04-02T18:07:18.217Z,102200.03
2023-04-02T18:17:48.415Z,102213.31
2023-04-02T18:27:58.749Z,102222.13
2023-04-02T18:38:23.595Z,102237.00
2023-04-02T18:49:03.677Z,102238.50
2023-04-02T18:59:36.146Z,102256.22
2023-04-02T19:09:42.721Z,102272.56
2023-04-02T19:19:56.997Z,102283.88
2023-04-02T19:29:58.392Z,102304.22
2023-04-02T19:40:32.456Z,102309.28
2023-04-02T19:50:33.928Z,102318.69
2023-04-02T20:00:35.539Z,102332.94
2023-04-02T20:10:37.564Z,102343.66
2023-04-02T20:20:39.542Z,102357.19
2023-04-02T20:30:41.062Z,102362.66
2023-04-02T20:40:43.647Z,102372.84
2023-04-02T20:50:46.223Z,102378.06
2023-04-02T21:00:47.672Z,102392.13
2023-04-02T21:10:49.169Z,102400.44
2023-04-02T21:21:04.954Z,102422.13
2023-04-02T21:31:13.307Z,102422.16
2023-04-02T21:41:26.823Z,102424.31
2023-04-02T21:51:30.555Z,102425.41
2023-04-02T22:01:36.759Z,102435.25
2023-04-02T22:11:41.871Z,102425.50
2023-04-02T22:21:44.217Z,102440.75
2023-04-02T22:31:45.807Z,102448.41
2023-04-02T22:41:47.196Z,102453.50
2023-04-02T22:51:48.781Z,102461.50
2023-04-02T23:01:50.303Z,102466.16
2023-04-02T23:11:51.794Z,102472.44
2023-04-02T23:21:53.321Z,102479.22
2023-04-02T23:31:54.796Z,102481.34
2023-04-02T23:41:57.067Z,102490.09
2023-04-02T23:51:58.452Z,102490.91
